PAS646 WALL-WAHI
Flight info
| Callsign | PAS646 |
|---|---|
| Flight time | 1h 30m |
| Altitude | 34000 |
| Route | AJAMA T14 LAVOV T26 ANY W17N SO |
| Aircraft | A320/M-SDE2E3FGHIRWY/LB1 |
Departure
| Time | 2026-04-23 08:37 |
|---|---|
| Airport | Sultan Aji Muhammad Sulaiman Sepinggan International Airport (WALL) |
Arrival
| Time | 2026-04-23 10:07 |
|---|---|
| Airport | Yogyakarta International Airport (WAHI) |
| Time | Latitude | Longitude | Altitude | Speed | Heading |
|---|---|---|---|---|---|
| 2026-04-23 08:25 | -1.26313 | 116.89850 | 27 ft | 0 kts | 337° |
| 2026-04-23 08:30 | -1.26327 | 116.89856 | 27 ft | 4 kts | 347° |
| 2026-04-23 08:30 | -1.26352 | 116.89856 | 27 ft | 4 kts | 28° |
| 2026-04-23 08:30 | -1.26366 | 116.89843 | 27 ft | 1 kts | 68° |
| 2026-04-23 08:31 | -1.26368 | 116.89840 | 27 ft | 0 kts | 68° |
| 2026-04-23 08:32 | -1.26367 | 116.89840 | 27 ft | 1 kts | 68° |
| 2026-04-23 08:33 | -1.26364 | 116.89862 | 27 ft | 5 kts | 89° |
| 2026-04-23 08:33 | -1.26366 | 116.89913 | 27 ft | 10 kts | 71° |
| 2026-04-23 08:33 | -1.26335 | 116.89992 | 27 ft | 14 kts | 67° |
| 2026-04-23 08:33 | -1.26292 | 116.90095 | 27 ft | 17 kts | 67° |
| 2026-04-23 08:34 | -1.26244 | 116.90205 | 27 ft | 18 kts | 66° |
| 2026-04-23 08:34 | -1.26204 | 116.90320 | 27 ft | 15 kts | 92° |
| 2026-04-23 08:34 | -1.26236 | 116.90379 | 27 ft | 8 kts | 122° |
| 2026-04-23 08:34 | -1.26261 | 116.90418 | 28 ft | 5 kts | 122° |
| 2026-04-23 08:35 | -1.26275 | 116.90439 | 28 ft | 4 kts | 127° |
| 2026-04-23 08:35 | -1.26299 | 116.90461 | 29 ft | 6 kts | 144° |
| 2026-04-23 08:35 | -1.26347 | 116.90474 | 30 ft | 9 kts | 179° |
| 2026-04-23 08:35 | -1.26410 | 116.90457 | 29 ft | 9 kts | 217° |
| 2026-04-23 08:36 | -1.26435 | 116.90404 | 29 ft | 9 kts | 249° |
| 2026-04-23 08:36 | -1.26521 | 116.90200 | 27 ft | 69 kts | 247° |
| 2026-04-23 08:36 | -1.26795 | 116.89548 | 30 ft | 132 kts | 247° |
| 2026-04-23 08:36 | -1.27219 | 116.88533 | 61 ft | 178 kts | 248° |
| 2026-04-23 08:37 | -1.27670 | 116.87417 | 796 ft | 170 kts | 248° |
| 2026-04-23 08:37 | -1.28122 | 116.86312 | 1405 ft | 175 kts | 246° |
| 2026-04-23 08:37 | -1.28626 | 116.85133 | 1705 ft | 195 kts | 246° |
| 2026-04-23 08:37 | -1.29191 | 116.83816 | 1920 ft | 217 kts | 247° |
| 2026-04-23 08:38 | -1.29815 | 116.82359 | 2174 ft | 239 kts | 247° |
| 2026-04-23 08:38 | -1.30499 | 116.80756 | 2493 ft | 263 kts | 247° |
| 2026-04-23 08:38 | -1.31229 | 116.79038 | 3122 ft | 272 kts | 247° |
| 2026-04-23 08:38 | -1.31973 | 116.77281 | 3889 ft | 277 kts | 247° |
| 2026-04-23 08:39 | -1.32729 | 116.75501 | 4688 ft | 280 kts | 247° |
| 2026-04-23 08:39 | -1.33497 | 116.73694 | 5484 ft | 283 kts | 246° |
| 2026-04-23 08:39 | -1.34267 | 116.71876 | 6256 ft | 286 kts | 246° |
| 2026-04-23 08:39 | -1.35042 | 116.70049 | 6972 ft | 289 kts | 246° |
| 2026-04-23 08:40 | -1.35835 | 116.68186 | 7671 ft | 293 kts | 246° |
| 2026-04-23 08:40 | -1.36635 | 116.66297 | 8380 ft | 297 kts | 246° |
| 2026-04-23 08:40 | -1.37448 | 116.64377 | 9075 ft | 301 kts | 246° |
| 2026-04-23 08:40 | -1.38271 | 116.62430 | 9749 ft | 306 kts | 246° |
| 2026-04-23 08:41 | -1.39106 | 116.60450 | 10222 ft | 317 kts | 246° |
| 2026-04-23 08:41 | -1.39990 | 116.58361 | 10366 ft | 340 kts | 246° |
| 2026-04-23 08:41 | -1.40951 | 116.56103 | 10568 ft | 359 kts | 246° |
| 2026-04-23 08:41 | -1.41937 | 116.53788 | 11065 ft | 365 kts | 246° |
| 2026-04-23 08:42 | -1.42941 | 116.51431 | 11660 ft | 369 kts | 246° |
| 2026-04-23 08:42 | -1.43947 | 116.49057 | 12242 ft | 372 kts | 246° |
| 2026-04-23 08:42 | -1.44987 | 116.46674 | 12818 ft | 376 kts | 242° |
| 2026-04-23 08:42 | -1.46524 | 116.44563 | 13371 ft | 378 kts | 225° |
| 2026-04-23 08:43 | -1.48380 | 116.42708 | 13890 ft | 380 kts | 224° |
| 2026-04-23 08:43 | -1.50252 | 116.40864 | 14416 ft | 383 kts | 224° |
| 2026-04-23 08:43 | -1.52169 | 116.38984 | 14900 ft | 387 kts | 223° |
| 2026-04-23 08:43 | -1.54101 | 116.37092 | 15406 ft | 389 kts | 223° |
| 2026-04-23 08:44 | -1.56037 | 116.35192 | 15914 ft | 392 kts | 224° |
| 2026-04-23 08:44 | -1.58000 | 116.33265 | 16412 ft | 395 kts | 224° |
| 2026-04-23 08:44 | -1.59970 | 116.31325 | 16888 ft | 398 kts | 224° |
| 2026-04-23 08:44 | -1.61948 | 116.29375 | 17356 ft | 401 kts | 224° |
| 2026-04-23 08:45 | -1.63946 | 116.27406 | 17830 ft | 404 kts | 224° |
| 2026-04-23 08:45 | -1.65963 | 116.25422 | 18264 ft | 407 kts | 224° |
| 2026-04-23 08:45 | -1.67953 | 116.23462 | 18667 ft | 410 kts | 224° |
| 2026-04-23 08:45 | -1.69995 | 116.21447 | 19071 ft | 412 kts | 224° |
| 2026-04-23 08:46 | -1.72043 | 116.19427 | 19463 ft | 414 kts | 224° |
| 2026-04-23 08:46 | -1.74101 | 116.17399 | 19846 ft | 417 kts | 224° |
| 2026-04-23 08:46 | -1.76176 | 116.15355 | 20248 ft | 420 kts | 224° |
| 2026-04-23 08:46 | -1.78244 | 116.13320 | 20634 ft | 422 kts | 223° |
| 2026-04-23 08:47 | -1.80346 | 116.11253 | 21014 ft | 425 kts | 223° |
| 2026-04-23 08:47 | -1.82455 | 116.09180 | 21390 ft | 427 kts | 223° |
| 2026-04-23 08:47 | -1.84581 | 116.07085 | 21753 ft | 430 kts | 223° |
| 2026-04-23 08:47 | -1.86724 | 116.04974 | 22113 ft | 432 kts | 223° |
| 2026-04-23 08:48 | -1.88872 | 116.02855 | 22469 ft | 435 kts | 224° |
| 2026-04-23 08:48 | -1.91029 | 116.00727 | 22829 ft | 437 kts | 223° |
| 2026-04-23 08:48 | -1.93210 | 115.98578 | 23189 ft | 440 kts | 223° |
| 2026-04-23 08:48 | -1.95368 | 115.96453 | 23512 ft | 442 kts | 223° |
| 2026-04-23 08:49 | -1.97565 | 115.94287 | 23800 ft | 444 kts | 224° |
| 2026-04-23 08:49 | -1.99770 | 115.92113 | 24087 ft | 446 kts | 224° |
| 2026-04-23 08:49 | -2.01985 | 115.89928 | 24386 ft | 448 kts | 224° |
| 2026-04-23 08:49 | -2.04217 | 115.87730 | 24672 ft | 450 kts | 224° |
| 2026-04-23 08:50 | -2.06428 | 115.85552 | 24957 ft | 451 kts | 224° |
| 2026-04-23 08:50 | -2.08674 | 115.83336 | 25239 ft | 453 kts | 224° |
| 2026-04-23 08:50 | -2.10922 | 115.81118 | 25512 ft | 455 kts | 224° |
| 2026-04-23 08:50 | -2.13188 | 115.78886 | 25774 ft | 457 kts | 224° |
| 2026-04-23 08:51 | -2.15457 | 115.76651 | 26043 ft | 459 kts | 224° |
| 2026-04-23 08:51 | -2.17731 | 115.74408 | 26311 ft | 461 kts | 224° |
| 2026-04-23 08:51 | -2.20024 | 115.72148 | 26577 ft | 463 kts | 224° |
| 2026-04-23 08:51 | -2.22328 | 115.69881 | 26828 ft | 465 kts | 224° |
| 2026-04-23 08:52 | -2.24639 | 115.67605 | 27083 ft | 466 kts | 224° |
| 2026-04-23 08:52 | -2.26951 | 115.65323 | 27351 ft | 468 kts | 224° |
| 2026-04-23 08:52 | -2.29248 | 115.63057 | 27613 ft | 470 kts | 224° |
| 2026-04-23 08:52 | -2.31585 | 115.60752 | 27864 ft | 472 kts | 224° |
| 2026-04-23 08:53 | -2.33924 | 115.58445 | 28115 ft | 473 kts | 224° |
| 2026-04-23 08:53 | -2.36272 | 115.56126 | 28370 ft | 474 kts | 224° |
| 2026-04-23 08:53 | -2.38625 | 115.53807 | 28604 ft | 476 kts | 224° |
| 2026-04-23 08:53 | -2.40190 | 115.52267 | 28755 ft | 477 kts | 224° |
| 2026-04-23 08:54 | -2.42555 | 115.49935 | 28983 ft | 478 kts | 224° |
| 2026-04-23 08:54 | -2.44934 | 115.47585 | 29198 ft | 480 kts | 224° |
| 2026-04-23 08:54 | -2.47312 | 115.45238 | 29430 ft | 481 kts | 224° |
| 2026-04-23 08:54 | -2.49696 | 115.42888 | 29656 ft | 482 kts | 224° |
| 2026-04-23 08:55 | -2.52097 | 115.40523 | 29871 ft | 484 kts | 224° |
| 2026-04-23 08:55 | -2.54500 | 115.38157 | 30058 ft | 485 kts | 224° |
| 2026-04-23 08:55 | -2.56878 | 115.35814 | 30282 ft | 485 kts | 224° |
| 2026-04-23 08:55 | -2.59281 | 115.33446 | 30554 ft | 484 kts | 224° |
| 2026-04-23 08:56 | -2.61673 | 115.31083 | 30828 ft | 483 kts | 224° |
| 2026-04-23 08:56 | -2.64069 | 115.28716 | 31087 ft | 482 kts | 224° |
| 2026-04-23 08:56 | -2.66452 | 115.26362 | 31349 ft | 481 kts | 224° |
| 2026-04-23 08:56 | -2.68834 | 115.24012 | 31610 ft | 481 kts | 224° |
| 2026-04-23 08:57 | -2.71217 | 115.21660 | 31858 ft | 480 kts | 224° |
| 2026-04-23 08:57 | -2.73569 | 115.19335 | 32134 ft | 480 kts | 224° |
| 2026-04-23 08:57 | -2.75942 | 115.16988 | 32401 ft | 479 kts | 224° |
| 2026-04-23 08:57 | -2.78331 | 115.14628 | 32654 ft | 479 kts | 224° |
| 2026-04-23 08:58 | -2.80698 | 115.12294 | 32916 ft | 478 kts | 224° |
| 2026-04-23 08:58 | -2.83074 | 115.09957 | 33179 ft | 478 kts | 223° |
| 2026-04-23 08:58 | -2.85418 | 115.07650 | 33448 ft | 478 kts | 224° |
| 2026-04-23 08:58 | -2.87784 | 115.05316 | 33692 ft | 478 kts | 224° |
| 2026-04-23 08:59 | -2.92507 | 115.00648 | 33792 ft | 475 kts | 224° |
| 2026-04-23 08:59 | -2.97199 | 114.96001 | 33785 ft | 474 kts | 224° |
| 2026-04-23 09:00 | -3.01898 | 114.91360 | 33793 ft | 474 kts | 223° |
| 2026-04-23 09:00 | -3.06590 | 114.86735 | 33792 ft | 474 kts | 223° |
| 2026-04-23 09:01 | -3.11295 | 114.82084 | 33790 ft | 474 kts | 224° |
| 2026-04-23 09:01 | -3.15958 | 114.77475 | 33795 ft | 474 kts | 223° |
| 2026-04-23 09:02 | -3.20656 | 114.72836 | 33805 ft | 474 kts | 224° |
| 2026-04-23 09:02 | -3.25329 | 114.68214 | 33810 ft | 474 kts | 224° |
| 2026-04-23 09:03 | -3.30017 | 114.63580 | 33804 ft | 474 kts | 224° |
| 2026-04-23 09:03 | -3.34709 | 114.58937 | 33806 ft | 473 kts | 224° |
| 2026-04-23 09:04 | -3.39398 | 114.54308 | 33808 ft | 473 kts | 224° |
| 2026-04-23 09:04 | -3.44086 | 114.49677 | 33807 ft | 473 kts | 224° |
| 2026-04-23 09:05 | -3.48760 | 114.45053 | 33797 ft | 474 kts | 224° |
| 2026-04-23 09:05 | -3.53442 | 114.40414 | 33795 ft | 473 kts | 224° |
| 2026-04-23 09:06 | -3.58130 | 114.35768 | 33805 ft | 473 kts | 224° |
| 2026-04-23 09:06 | -3.62822 | 114.31131 | 33802 ft | 473 kts | 224° |
| 2026-04-23 09:07 | -3.67486 | 114.26528 | 33798 ft | 473 kts | 224° |
| 2026-04-23 09:07 | -3.72177 | 114.21888 | 33806 ft | 473 kts | 224° |
| 2026-04-23 09:08 | -3.76860 | 114.17241 | 33815 ft | 473 kts | 224° |
| 2026-04-23 09:08 | -3.81512 | 114.12629 | 33817 ft | 473 kts | 224° |
| 2026-04-23 09:09 | -3.86201 | 114.07989 | 33830 ft | 473 kts | 224° |
| 2026-04-23 09:09 | -3.90891 | 114.03347 | 33827 ft | 473 kts | 224° |
| 2026-04-23 09:10 | -3.97881 | 113.96424 | 33828 ft | 472 kts | 224° |
| 2026-04-23 09:11 | -4.02553 | 113.91792 | 33822 ft | 472 kts | 224° |
| 2026-04-23 09:11 | -4.07217 | 113.87170 | 33819 ft | 471 kts | 224° |
| 2026-04-23 09:12 | -4.11882 | 113.82541 | 33813 ft | 472 kts | 224° |
| 2026-04-23 09:12 | -4.16541 | 113.77923 | 33814 ft | 472 kts | 223° |
| 2026-04-23 09:13 | -4.21233 | 113.73277 | 33813 ft | 473 kts | 223° |
| 2026-04-23 09:13 | -4.25893 | 113.68656 | 33811 ft | 473 kts | 223° |
| 2026-04-23 09:14 | -4.30581 | 113.64010 | 33818 ft | 474 kts | 223° |
| 2026-04-23 09:14 | -4.35278 | 113.59349 | 33807 ft | 475 kts | 223° |
| 2026-04-23 09:15 | -4.39975 | 113.54688 | 33807 ft | 475 kts | 223° |
| 2026-04-23 09:15 | -4.44640 | 113.50054 | 33815 ft | 475 kts | 223° |
| 2026-04-23 09:16 | -4.49333 | 113.45397 | 33806 ft | 475 kts | 223° |
| 2026-04-23 09:16 | -4.54033 | 113.40731 | 33812 ft | 475 kts | 223° |
| 2026-04-23 09:17 | -4.58736 | 113.36059 | 33811 ft | 475 kts | 223° |
| 2026-04-23 09:17 | -4.63449 | 113.31391 | 33812 ft | 476 kts | 223° |
| 2026-04-23 09:18 | -4.68127 | 113.26743 | 33810 ft | 476 kts | 224° |
| 2026-04-23 09:18 | -4.72823 | 113.22064 | 33813 ft | 476 kts | 224° |
| 2026-04-23 09:19 | -4.77529 | 113.17377 | 33811 ft | 476 kts | 224° |
| 2026-04-23 09:19 | -4.82236 | 113.12694 | 33818 ft | 476 kts | 224° |
| 2026-04-23 09:20 | -4.86943 | 113.08021 | 33814 ft | 475 kts | 224° |
| 2026-04-23 09:20 | -4.91614 | 113.03383 | 33814 ft | 475 kts | 224° |
| 2026-04-23 09:21 | -4.96311 | 112.98716 | 33809 ft | 475 kts | 224° |
| 2026-04-23 09:21 | -5.01015 | 112.94034 | 33813 ft | 475 kts | 224° |
| 2026-04-23 09:22 | -5.05671 | 112.89395 | 33810 ft | 475 kts | 224° |
| 2026-04-23 09:22 | -5.10360 | 112.84731 | 33810 ft | 475 kts | 224° |
| 2026-04-23 09:23 | -5.15052 | 112.80058 | 33815 ft | 475 kts | 224° |
| 2026-04-23 09:23 | -5.19749 | 112.75382 | 33817 ft | 475 kts | 224° |
| 2026-04-23 09:24 | -5.24405 | 112.70746 | 33817 ft | 474 kts | 224° |
| 2026-04-23 09:24 | -5.29100 | 112.66067 | 33828 ft | 474 kts | 224° |
| 2026-04-23 09:25 | -5.33778 | 112.61405 | 33831 ft | 474 kts | 224° |
| 2026-04-23 09:25 | -5.38468 | 112.56728 | 33826 ft | 474 kts | 224° |
| 2026-04-23 09:26 | -5.43112 | 112.52095 | 33831 ft | 474 kts | 224° |
| 2026-04-23 09:26 | -5.47805 | 112.47418 | 33821 ft | 474 kts | 224° |
| 2026-04-23 09:27 | -5.52493 | 112.42750 | 33832 ft | 474 kts | 224° |
| 2026-04-23 09:27 | -5.57173 | 112.38096 | 33832 ft | 473 kts | 224° |
| 2026-04-23 09:28 | -5.61808 | 112.33467 | 33837 ft | 473 kts | 225° |
| 2026-04-23 09:28 | -5.66476 | 112.28787 | 33834 ft | 472 kts | 224° |
| 2026-04-23 09:29 | -5.71137 | 112.24139 | 33833 ft | 472 kts | 224° |
| 2026-04-23 09:29 | -5.75801 | 112.19490 | 33833 ft | 472 kts | 224° |
| 2026-04-23 09:30 | -5.80464 | 112.14833 | 33835 ft | 472 kts | 224° |
| 2026-04-23 09:30 | -5.85084 | 112.10225 | 33842 ft | 471 kts | 224° |
| 2026-04-23 09:31 | -5.89738 | 112.05565 | 33836 ft | 471 kts | 225° |
| 2026-04-23 09:31 | -5.94382 | 112.00909 | 33832 ft | 471 kts | 225° |
| 2026-04-23 09:32 | -5.98996 | 111.96294 | 33831 ft | 470 kts | 225° |
| 2026-04-23 09:32 | -6.03648 | 111.91653 | 33831 ft | 470 kts | 225° |
| 2026-04-23 09:33 | -6.08303 | 111.87000 | 33828 ft | 470 kts | 225° |
| 2026-04-23 09:33 | -6.12909 | 111.82389 | 33826 ft | 470 kts | 225° |
| 2026-04-23 09:34 | -6.17547 | 111.77743 | 33816 ft | 470 kts | 225° |
| 2026-04-23 09:34 | -6.22193 | 111.73098 | 33817 ft | 470 kts | 225° |
| 2026-04-23 09:35 | -6.26803 | 111.68485 | 33812 ft | 470 kts | 225° |
| 2026-04-23 09:35 | -6.31429 | 111.63852 | 33809 ft | 470 kts | 225° |
| 2026-04-23 09:36 | -6.36066 | 111.59207 | 33804 ft | 470 kts | 225° |
| 2026-04-23 09:36 | -6.40709 | 111.54558 | 33792 ft | 469 kts | 225° |
| 2026-04-23 09:37 | -6.45320 | 111.49940 | 33799 ft | 469 kts | 225° |
| 2026-04-23 09:37 | -6.49144 | 111.46093 | 33801 ft | 469 kts | 225° |
| 2026-04-23 09:38 | -6.52995 | 111.42230 | 33793 ft | 469 kts | 225° |
| 2026-04-23 09:38 | -6.58378 | 111.36836 | 33787 ft | 469 kts | 225° |
| 2026-04-23 09:39 | -6.62253 | 111.32944 | 33790 ft | 469 kts | 225° |
| 2026-04-23 09:39 | -6.66839 | 111.28345 | 33784 ft | 469 kts | 225° |
| 2026-04-23 09:40 | -6.71483 | 111.23694 | 33782 ft | 469 kts | 225° |
| 2026-04-23 09:40 | -6.76108 | 111.19042 | 33783 ft | 469 kts | 225° |
| 2026-04-23 09:41 | -6.80736 | 111.14389 | 33784 ft | 470 kts | 225° |
| 2026-04-23 09:41 | -6.85334 | 111.09773 | 33777 ft | 470 kts | 225° |
| 2026-04-23 09:42 | -6.89964 | 111.05121 | 33780 ft | 470 kts | 225° |
| 2026-04-23 09:42 | -6.94590 | 111.00473 | 33779 ft | 469 kts | 225° |
| 2026-04-23 09:43 | -6.99210 | 110.95821 | 33774 ft | 469 kts | 225° |
| 2026-04-23 09:43 | -7.03833 | 110.91173 | 33775 ft | 469 kts | 225° |
| 2026-04-23 09:44 | -7.08427 | 110.86554 | 33771 ft | 469 kts | 225° |
| 2026-04-23 09:44 | -7.12916 | 110.82030 | 33774 ft | 469 kts | 225° |
| 2026-04-23 09:45 | -7.17894 | 110.77786 | 33779 ft | 469 kts | 210° |
| 2026-04-23 09:45 | -7.23920 | 110.75447 | 33779 ft | 468 kts | 190° |
| 2026-04-23 09:46 | -7.30361 | 110.75034 | 33777 ft | 467 kts | 180° |
| 2026-04-23 09:46 | -7.36876 | 110.74920 | 33784 ft | 468 kts | 180° |
| 2026-04-23 09:47 | -7.43357 | 110.74803 | 33776 ft | 470 kts | 180° |
| 2026-04-23 09:47 | -7.46607 | 110.74514 | 33776 ft | 471 kts | 191° |
| 2026-04-23 09:47 | -7.49778 | 110.73601 | 33778 ft | 472 kts | 202° |
| 2026-04-23 09:47 | -7.52717 | 110.72107 | 33776 ft | 473 kts | 213° |
| 2026-04-23 09:48 | -7.55325 | 110.70077 | 33783 ft | 473 kts | 224° |
| 2026-04-23 09:48 | -7.57554 | 110.67691 | 33110 ft | 477 kts | 229° |
| 2026-04-23 09:48 | -7.59780 | 110.65141 | 31837 ft | 489 kts | 229° |
| 2026-04-23 09:48 | -7.62015 | 110.62532 | 31032 ft | 490 kts | 230° |
| 2026-04-23 09:49 | -7.64210 | 110.59950 | 30336 ft | 489 kts | 230° |
| 2026-04-23 09:49 | -7.66320 | 110.57474 | 29728 ft | 485 kts | 229° |
| 2026-04-23 09:49 | -7.68521 | 110.54906 | 29050 ft | 481 kts | 229° |
| 2026-04-23 09:49 | -7.70696 | 110.52380 | 28406 ft | 476 kts | 229° |
| 2026-04-23 09:50 | -7.72866 | 110.49865 | 27775 ft | 471 kts | 229° |
| 2026-04-23 09:50 | -7.75007 | 110.47385 | 27167 ft | 466 kts | 229° |
| 2026-04-23 09:50 | -7.76557 | 110.45410 | 26710 ft | 462 kts | 237° |
| 2026-04-23 09:50 | -7.78051 | 110.42572 | 26155 ft | 456 kts | 249° |
| 2026-04-23 09:51 | -7.78914 | 110.39523 | 25590 ft | 450 kts | 261° |
| 2026-04-23 09:51 | -7.79317 | 110.36413 | 25020 ft | 445 kts | 264° |
| 2026-04-23 09:51 | -7.79608 | 110.34088 | 24603 ft | 443 kts | 263° |
| 2026-04-23 09:51 | -7.79901 | 110.31021 | 24067 ft | 438 kts | 270° |
| 2026-04-23 09:52 | -7.79681 | 110.27976 | 23537 ft | 433 kts | 277° |
| 2026-04-23 09:52 | -7.79335 | 110.25012 | 22939 ft | 430 kts | 277° |
| 2026-04-23 09:52 | -7.78982 | 110.21993 | 22340 ft | 426 kts | 277° |
| 2026-04-23 09:52 | -7.78639 | 110.19042 | 21783 ft | 422 kts | 277° |
| 2026-04-23 09:53 | -7.78309 | 110.16210 | 21253 ft | 418 kts | 277° |
| 2026-04-23 09:53 | -7.77971 | 110.13307 | 20708 ft | 415 kts | 277° |
| 2026-04-23 09:53 | -7.77675 | 110.10778 | 20256 ft | 412 kts | 277° |
| 2026-04-23 09:53 | -7.77367 | 110.08154 | 19789 ft | 409 kts | 277° |
| 2026-04-23 09:54 | -7.77030 | 110.05313 | 19290 ft | 406 kts | 277° |
| 2026-04-23 09:54 | -7.76844 | 110.02488 | 18799 ft | 403 kts | 265° |
| 2026-04-23 09:54 | -7.77583 | 109.99791 | 18340 ft | 400 kts | 243° |
| 2026-04-23 09:54 | -7.79286 | 109.97605 | 17838 ft | 398 kts | 220° |
| 2026-04-23 09:55 | -7.81665 | 109.96255 | 17314 ft | 396 kts | 198° |
| 2026-04-23 09:55 | -7.84288 | 109.95499 | 16775 ft | 394 kts | 195° |
| 2026-04-23 09:55 | -7.86950 | 109.94787 | 16256 ft | 389 kts | 195° |
| 2026-04-23 09:55 | -7.89427 | 109.94140 | 15455 ft | 383 kts | 195° |
| 2026-04-23 09:56 | -7.92032 | 109.93464 | 14621 ft | 378 kts | 195° |
| 2026-04-23 09:56 | -7.94591 | 109.92790 | 13826 ft | 372 kts | 195° |
| 2026-04-23 09:56 | -7.97074 | 109.92130 | 13107 ft | 364 kts | 195° |
| 2026-04-23 09:56 | -7.99435 | 109.91502 | 12985 ft | 350 kts | 195° |
| 2026-04-23 09:57 | -8.01358 | 109.90986 | 12887 ft | 347 kts | 196° |
| 2026-04-23 09:57 | -8.03691 | 109.90366 | 12608 ft | 347 kts | 195° |
| 2026-04-23 09:57 | -8.06028 | 109.89747 | 11762 ft | 345 kts | 195° |
| 2026-04-23 09:57 | -8.08333 | 109.89138 | 11069 ft | 340 kts | 195° |
| 2026-04-23 09:58 | -8.10615 | 109.88536 | 10384 ft | 336 kts | 195° |
| 2026-04-23 09:58 | -8.12852 | 109.87952 | 9951 ft | 324 kts | 193° |
| 2026-04-23 09:58 | -8.15027 | 109.87850 | 9710 ft | 305 kts | 167° |
| 2026-04-23 09:58 | -8.16922 | 109.88663 | 9592 ft | 300 kts | 142° |
| 2026-04-23 09:59 | -8.18308 | 109.90245 | 9444 ft | 298 kts | 116° |
| 2026-04-23 09:59 | -8.18935 | 109.92192 | 9140 ft | 295 kts | 101° |
| 2026-04-23 09:59 | -8.19371 | 109.94219 | 8822 ft | 296 kts | 101° |
| 2026-04-23 09:59 | -8.19568 | 109.96264 | 8406 ft | 293 kts | 81° |
| 2026-04-23 10:00 | -8.18868 | 109.98163 | 7985 ft | 289 kts | 53° |
| 2026-04-23 10:00 | -8.17377 | 109.99500 | 7506 ft | 287 kts | 25° |
| 2026-04-23 10:00 | -8.15496 | 110.00066 | 7320 ft | 277 kts | 12° |
| 2026-04-23 10:00 | -8.13649 | 110.00500 | 7188 ft | 266 kts | 18° |
| 2026-04-23 10:01 | -8.12024 | 110.01321 | 6956 ft | 261 kts | 36° |
| 2026-04-23 10:01 | -8.10742 | 110.02596 | 6646 ft | 259 kts | 50° |
| 2026-04-23 10:01 | -8.09623 | 110.03990 | 6313 ft | 258 kts | 50° |
| 2026-04-23 10:01 | -8.08494 | 110.05389 | 5952 ft | 256 kts | 50° |
| 2026-04-23 10:02 | -8.07369 | 110.06783 | 5594 ft | 255 kts | 50° |
| 2026-04-23 10:02 | -8.06255 | 110.08165 | 5277 ft | 252 kts | 50° |
| 2026-04-23 10:02 | -8.05153 | 110.09531 | 4926 ft | 251 kts | 50° |
| 2026-04-23 10:02 | -8.04036 | 110.10912 | 4459 ft | 255 kts | 50° |
| 2026-04-23 10:03 | -8.02925 | 110.12285 | 3970 ft | 255 kts | 50° |
| 2026-04-23 10:03 | -8.01754 | 110.13595 | 3484 ft | 248 kts | 39° |
| 2026-04-23 10:03 | -8.00364 | 110.14587 | 3117 ft | 238 kts | 35° |
| 2026-04-23 10:03 | -7.99040 | 110.15514 | 2811 ft | 228 kts | 36° |
| 2026-04-23 10:04 | -7.97747 | 110.16403 | 2510 ft | 223 kts | 30° |
| 2026-04-23 10:04 | -7.96276 | 110.16690 | 2209 ft | 217 kts | 348° |
| 2026-04-23 10:04 | -7.95031 | 110.15914 | 1909 ft | 211 kts | 311° |
| 2026-04-23 10:04 | -7.94156 | 110.14754 | 1636 ft | 204 kts | 306° |
| 2026-04-23 10:05 | -7.93390 | 110.13624 | 1358 ft | 187 kts | 300° |
| 2026-04-23 10:05 | -7.92933 | 110.12456 | 1119 ft | 172 kts | 288° |
| 2026-04-23 10:05 | -7.92549 | 110.11343 | 916 ft | 165 kts | 288° |
| 2026-04-23 10:05 | -7.92174 | 110.10277 | 679 ft | 160 kts | 288° |
| 2026-04-23 10:06 | -7.91803 | 110.09225 | 470 ft | 158 kts | 288° |
| 2026-04-23 10:06 | -7.91431 | 110.08201 | 282 ft | 157 kts | 288° |
| 2026-04-23 10:06 | -7.91061 | 110.07174 | 71 ft | 155 kts | 289° |
| 2026-04-23 10:06 | -7.90730 | 110.06262 | 40 ft | 101 kts | 290° |
| 2026-04-23 10:07 | -7.90592 | 110.05874 | 45 ft | 26 kts | 291° |
| 2026-04-23 10:07 | -7.90529 | 110.05704 | 44 ft | 26 kts | 290° |
| 2026-04-23 10:07 | -7.90463 | 110.05531 | 43 ft | 27 kts | 290° |
| 2026-04-23 10:07 | -7.90388 | 110.05347 | 38 ft | 29 kts | 302° |
| 2026-04-23 10:08 | -7.90255 | 110.05207 | 38 ft | 20 kts | 322° |
| 2026-04-23 10:08 | -7.90172 | 110.05208 | 37 ft | 12 kts | 60° |
| 2026-04-23 10:08 | -7.90185 | 110.05272 | 36 ft | 8 kts | 111° |
| 2026-04-23 10:09 | -7.90231 | 110.05396 | 40 ft | 17 kts | 110° |
| 2026-04-23 10:09 | -7.90283 | 110.05531 | 42 ft | 25 kts | 112° |
| 2026-04-23 10:09 | -7.90344 | 110.05706 | 42 ft | 24 kts | 98° |
| 2026-04-23 10:09 | -7.90233 | 110.05785 | 37 ft | 18 kts | 20° |
| 2026-04-23 10:10 | -7.90217 | 110.05866 | 37 ft | 13 kts | 110° |
| 2026-04-23 10:10 | -7.90241 | 110.05960 | 38 ft | 14 kts | 72° |
| 2026-04-23 10:10 | -7.90186 | 110.05986 | 38 ft | 7 kts | 21° |
| 2026-04-23 10:10 | -7.90162 | 110.05995 | 38 ft | 0 kts | 21° |
| 2026-04-23 10:11 | -7.90179 | 110.05989 | 38 ft | 0 kts | 21° |
| 2026-04-23 10:11 | -7.90173 | 110.05991 | 38 ft | 0 kts | 21° |